sensor_id;sensor_type;location;lat;lon;timestamp;P1;durP1;ratioP1;P2;durP2;ratioP2
20076;SDS011;12348;42.710;23.378;2023-08-01T00:00:03;4.53;;;2.67;;
20076;SDS011;12348;42.710;23.378;2023-08-01T00:02:32;3.27;;;2.47;;
20076;SDS011;12348;42.710;23.378;2023-08-01T00:04:59;2.47;;;2.13;;
20076;SDS011;12348;42.710;23.378;2023-08-01T00:07:26;4.17;;;2.40;;
20076;SDS011;12348;42.710;23.378;2023-08-01T00:09:55;2.63;;;2.37;;
20076;SDS011;12348;42.710;23.378;2023-08-01T00:12:23;5.97;;;2.60;;
20076;SDS011;12348;42.710;23.378;2023-08-01T00:14:51;3.10;;;2.40;;
20076;SDS011;12348;42.710;23.378;2023-08-01T00:17:18;2.80;;;2.40;;
20076;SDS011;12348;42.710;23.378;2023-08-01T00:19:46;4.10;;;2.30;;
20076;SDS011;12348;42.710;23.378;2023-08-01T00:22:13;3.10;;;2.33;;
20076;SDS011;12348;42.710;23.378;2023-08-01T00:24:40;4.87;;;2.43;;
20076;SDS011;12348;42.710;23.378;2023-08-01T00:27:08;3.53;;;2.60;;
20076;SDS011;12348;42.710;23.378;2023-08-01T00:29:35;5.37;;;2.50;;
20076;SDS011;12348;42.710;23.378;2023-08-01T00:32:02;4.93;;;3.63;;
20076;SDS011;12348;42.710;23.378;2023-08-01T00:34:30;4.93;;;3.90;;
20076;SDS011;12348;42.710;23.378;2023-08-01T00:36:56;5.90;;;4.03;;
20076;SDS011;12348;42.710;23.378;2023-08-01T00:39:23;8.53;;;4.50;;
20076;SDS011;12348;42.710;23.378;2023-08-01T00:41:51;5.87;;;4.33;;
20076;SDS011;12348;42.710;23.378;2023-08-01T00:44:20;4.63;;;4.07;;
20076;SDS011;12348;42.710;23.378;2023-08-01T00:46:46;6.30;;;4.17;;
20076;SDS011;12348;42.710;23.378;2023-08-01T00:49:13;6.63;;;4.30;;
20076;SDS011;12348;42.710;23.378;2023-08-01T00:51:40;5.40;;;4.47;;
20076;SDS011;12348;42.710;23.378;2023-08-01T00:54:08;5.33;;;4.60;;
20076;SDS011;12348;42.710;23.378;2023-08-01T00:56:35;6.33;;;4.90;;
20076;SDS011;12348;42.710;23.378;2023-08-01T00:59:02;4.37;;;3.93;;
20076;SDS011;12348;42.710;23.378;2023-08-01T01:01:30;4.70;;;4.10;;
20076;SDS011;12348;42.710;23.378;2023-08-01T01:03:57;5.80;;;4.17;;
20076;SDS011;12348;42.710;23.378;2023-08-01T01:06:24;5.23;;;4.00;;
20076;SDS011;12348;42.710;23.378;2023-08-01T01:08:58;9.07;;;4.23;;
20076;SDS011;12348;42.710;23.378;2023-08-01T01:11:24;5.13;;;3.80;;
20076;SDS011;12348;42.710;23.378;2023-08-01T01:13:51;4.93;;;3.70;;
20076;SDS011;12348;42.710;23.378;2023-08-01T01:16:19;4.50;;;3.70;;
20076;SDS011;12348;42.710;23.378;2023-08-01T01:18:47;6.93;;;4.50;;
20076;SDS011;12348;42.710;23.378;2023-08-01T01:21:15;4.80;;;3.70;;
20076;SDS011;12348;42.710;23.378;2023-08-01T01:23:41;5.20;;;3.80;;
20076;SDS011;12348;42.710;23.378;2023-08-01T01:26:10;5.73;;;3.93;;
20076;SDS011;12348;42.710;23.378;2023-08-01T01:28:37;6.03;;;4.30;;
20076;SDS011;12348;42.710;23.378;2023-08-01T01:31:04;5.00;;;3.90;;
20076;SDS011;12348;42.710;23.378;2023-08-01T01:33:31;8.90;;;4.20;;
20076;SDS011;12348;42.710;23.378;2023-08-01T01:36:00;7.10;;;4.50;;
20076;SDS011;12348;42.710;23.378;2023-08-01T01:38:28;5.17;;;4.67;;
20076;SDS011;12348;42.710;23.378;2023-08-01T01:40:55;5.70;;;3.87;;
20076;SDS011;12348;42.710;23.378;2023-08-01T01:43:21;4.13;;;3.40;;
20076;SDS011;12348;42.710;23.378;2023-08-01T01:45:48;7.13;;;3.87;;
20076;SDS011;12348;42.710;23.378;2023-08-01T01:48:16;4.53;;;3.63;;
20076;SDS011;12348;42.710;23.378;2023-08-01T01:50:42;4.70;;;4.07;;
20076;SDS011;12348;42.710;23.378;2023-08-01T01:53:09;6.30;;;3.80;;
20076;SDS011;12348;42.710;23.378;2023-08-01T01:55:37;6.93;;;4.20;;
20076;SDS011;12348;42.710;23.378;2023-08-01T01:58:05;4.80;;;3.20;;
20076;SDS011;12348;42.710;23.378;2023-08-01T02:00:32;3.90;;;3.50;;
20076;SDS011;12348;42.710;23.378;2023-08-01T02:02:59;4.80;;;3.87;;
20076;SDS011;12348;42.710;23.378;2023-08-01T02:05:27;5.60;;;3.43;;
20076;SDS011;12348;42.710;23.378;2023-08-01T02:07:54;4.33;;;3.30;;
20076;SDS011;12348;42.710;23.378;2023-08-01T02:10:21;5.80;;;3.83;;
20076;SDS011;12348;42.710;23.378;2023-08-01T02:12:49;3.40;;;3.10;;
20076;SDS011;12348;42.710;23.378;2023-08-01T02:15:16;4.17;;;3.30;;
20076;SDS011;12348;42.710;23.378;2023-08-01T02:17:43;4.87;;;3.60;;
20076;SDS011;12348;42.710;23.378;2023-08-01T02:20:10;4.27;;;3.87;;
20076;SDS011;12348;42.710;23.378;2023-08-01T02:22:37;7.50;;;3.77;;
20076;SDS011;12348;42.710;23.378;2023-08-01T02:25:07;4.40;;;3.57;;
20076;SDS011;12348;42.710;23.378;2023-08-01T02:27:34;4.87;;;3.80;;
20076;SDS011;12348;42.710;23.378;2023-08-01T02:30:02;4.27;;;3.70;;
20076;SDS011;12348;42.710;23.378;2023-08-01T02:32:30;4.67;;;4.17;;
20076;SDS011;12348;42.710;23.378;2023-08-01T02:34:57;4.33;;;3.80;;
20076;SDS011;12348;42.710;23.378;2023-08-01T02:37:23;6.77;;;4.47;;
20076;SDS011;12348;42.710;23.378;2023-08-01T02:39:50;5.53;;;4.47;;
20076;SDS011;12348;42.710;23.378;2023-08-01T02:42:17;5.67;;;4.27;;
20076;SDS011;12348;42.710;23.378;2023-08-01T02:44:43;5.03;;;4.37;;
20076;SDS011;12348;42.710;23.378;2023-08-01T02:47:13;5.07;;;4.00;;
20076;SDS011;12348;42.710;23.378;2023-08-01T02:49:40;6.30;;;4.47;;
20076;SDS011;12348;42.710;23.378;2023-08-01T02:52:07;7.90;;;5.40;;
20076;SDS011;12348;42.710;23.378;2023-08-01T02:54:35;9.53;;;5.27;;
20076;SDS011;12348;42.710;23.378;2023-08-01T02:57:02;8.87;;;6.00;;
20076;SDS011;12348;42.710;23.378;2023-08-01T02:59:29;10.97;;;6.27;;
20076;SDS011;12348;42.710;23.378;2023-08-01T03:01:58;9.27;;;5.80;;
20076;SDS011;12348;42.710;23.378;2023-08-01T03:04:27;17.30;;;11.93;;
20076;SDS011;12348;42.710;23.378;2023-08-01T03:06:53;8.67;;;7.37;;
20076;SDS011;12348;42.710;23.378;2023-08-01T03:09:20;8.10;;;6.57;;
20076;SDS011;12348;42.710;23.378;2023-08-01T03:11:47;8.23;;;6.60;;
20076;SDS011;12348;42.710;23.378;2023-08-01T03:14:14;10.10;;;8.27;;
20076;SDS011;12348;42.710;23.378;2023-08-01T03:16:41;15.73;;;7.90;;
20076;SDS011;12348;42.710;23.378;2023-08-01T03:19:08;10.07;;;6.80;;
20076;SDS011;12348;42.710;23.378;2023-08-01T03:21:37;9.77;;;7.83;;
20076;SDS011;12348;42.710;23.378;2023-08-01T03:24:04;7.30;;;6.43;;
20076;SDS011;12348;42.710;23.378;2023-08-01T03:26:33;8.67;;;7.00;;
20076;SDS011;12348;42.710;23.378;2023-08-01T03:29:00;8.30;;;6.50;;
20076;SDS011;12348;42.710;23.378;2023-08-01T03:31:27;8.70;;;6.73;;
20076;SDS011;12348;42.710;23.378;2023-08-01T03:33:54;9.70;;;6.90;;
20076;SDS011;12348;42.710;23.378;2023-08-01T03:36:23;13.40;;;8.97;;
20076;SDS011;12348;42.710;23.378;2023-08-01T03:38:51;7.03;;;6.33;;
20076;SDS011;12348;42.710;23.378;2023-08-01T03:41:18;10.03;;;6.77;;
20076;SDS011;12348;42.710;23.378;2023-08-01T03:43:45;9.37;;;6.30;;
20076;SDS011;12348;42.710;23.378;2023-08-01T03:46:12;7.53;;;6.47;;
20076;SDS011;12348;42.710;23.378;2023-08-01T03:48:39;7.50;;;6.37;;
20076;SDS011;12348;42.710;23.378;2023-08-01T03:51:05;13.50;;;8.07;;
20076;SDS011;12348;42.710;23.378;2023-08-01T03:53:32;14.10;;;8.37;;
20076;SDS011;12348;42.710;23.378;2023-08-01T03:56:00;10.17;;;6.63;;
20076;SDS011;12348;42.710;23.378;2023-08-01T03:58:27;11.63;;;6.07;;
20076;SDS011;12348;42.710;23.378;2023-08-01T04:00:55;7.30;;;4.43;;
20076;SDS011;12348;42.710;23.378;2023-08-01T04:03:22;9.87;;;6.10;;
20076;SDS011;12348;42.710;23.378;2023-08-01T04:05:49;5.47;;;4.83;;
20076;SDS011;12348;42.710;23.378;2023-08-01T04:08:15;6.10;;;4.97;;
20076;SDS011;12348;42.710;23.378;2023-08-01T04:10:42;5.83;;;4.83;;
20076;SDS011;12348;42.710;23.378;2023-08-01T04:13:11;6.07;;;4.67;;
20076;SDS011;12348;42.710;23.378;2023-08-01T04:15:38;9.97;;;5.47;;
20076;SDS011;12348;42.710;23.378;2023-08-01T04:18:05;7.23;;;4.87;;
20076;SDS011;12348;42.710;23.378;2023-08-01T04:20:32;12.73;;;7.87;;
20076;SDS011;12348;42.710;23.378;2023-08-01T04:22:59;13.10;;;9.27;;
20076;SDS011;12348;42.710;23.378;2023-08-01T04:25:25;8.20;;;5.40;;
20076;SDS011;12348;42.710;23.378;2023-08-01T04:27:53;8.57;;;6.70;;
20076;SDS011;12348;42.710;23.378;2023-08-01T04:30:21;7.53;;;4.87;;
20076;SDS011;12348;42.710;23.378;2023-08-01T04:32:48;14.00;;;7.50;;
20076;SDS011;12348;42.710;23.378;2023-08-01T04:35:15;9.60;;;5.53;;
20076;SDS011;12348;42.710;23.378;2023-08-01T04:37:41;9.77;;;5.33;;
20076;SDS011;12348;42.710;23.378;2023-08-01T04:40:08;7.33;;;4.97;;
20076;SDS011;12348;42.710;23.378;2023-08-01T04:42:36;10.20;;;5.47;;
20076;SDS011;12348;42.710;23.378;2023-08-01T04:45:03;5.47;;;4.90;;
20076;SDS011;12348;42.710;23.378;2023-08-01T04:47:33;5.60;;;4.30;;
20076;SDS011;12348;42.710;23.378;2023-08-01T04:50:00;5.67;;;3.70;;
20076;SDS011;12348;42.710;23.378;2023-08-01T04:52:27;5.20;;;3.70;;
20076;SDS011;12348;42.710;23.378;2023-08-01T04:54:53;4.43;;;3.50;;
20076;SDS011;12348;42.710;23.378;2023-08-01T04:57:20;4.53;;;3.50;;
20076;SDS011;12348;42.710;23.378;2023-08-01T04:59:47;4.47;;;3.70;;
20076;SDS011;12348;42.710;23.378;2023-08-01T05:02:13;5.87;;;3.80;;
20076;SDS011;12348;42.710;23.378;2023-08-01T05:04:43;6.90;;;4.03;;
20076;SDS011;12348;42.710;23.378;2023-08-01T05:07:09;7.13;;;4.93;;
20076;SDS011;12348;42.710;23.378;2023-08-01T05:09:36;9.30;;;5.57;;
20076;SDS011;12348;42.710;23.378;2023-08-01T05:12:03;10.23;;;7.07;;
20076;SDS011;12348;42.710;23.378;2023-08-01T05:14:30;18.53;;;12.47;;
20076;SDS011;12348;42.710;23.378;2023-08-01T05:16:57;17.37;;;11.83;;
20076;SDS011;12348;42.710;23.378;2023-08-01T05:19:24;20.90;;;10.93;;
20076;SDS011;12348;42.710;23.378;2023-08-01T05:21:52;6.70;;;4.93;;
20076;SDS011;12348;42.710;23.378;2023-08-01T05:24:20;12.37;;;8.03;;
20076;SDS011;12348;42.710;23.378;2023-08-01T05:26:46;7.50;;;4.53;;
20076;SDS011;12348;42.710;23.378;2023-08-01T05:29:13;4.75;;;4.13;;
20076;SDS011;12348;42.710;23.378;2023-08-01T05:31:40;4.65;;;3.42;;
20076;SDS011;12348;42.710;23.378;2023-08-01T05:34:07;8.27;;;5.35;;
20076;SDS011;12348;42.710;23.378;2023-08-01T05:36:34;5.63;;;4.32;;
20076;SDS011;12348;42.710;23.378;2023-08-01T05:39:03;7.75;;;5.60;;
20076;SDS011;12348;42.710;23.378;2023-08-01T05:41:30;5.10;;;3.25;;
20076;SDS011;12348;42.710;23.378;2023-08-01T05:43:57;3.63;;;2.90;;
20076;SDS011;12348;42.710;23.378;2023-08-01T05:46:24;5.10;;;3.50;;
20076;SDS011;12348;42.710;23.378;2023-08-01T05:48:51;4.05;;;2.80;;
20076;SDS011;12348;42.710;23.378;2023-08-01T05:51:18;3.63;;;3.28;;
20076;SDS011;12348;42.710;23.378;2023-08-01T05:53:45;3.35;;;2.58;;
20076;SDS011;12348;42.710;23.378;2023-08-01T05:56:13;4.45;;;2.63;;
20076;SDS011;12348;42.710;23.378;2023-08-01T05:58:40;3.45;;;2.80;;
20076;SDS011;12348;42.710;23.378;2023-08-01T06:01:07;4.60;;;3.45;;
20076;SDS011;12348;42.710;23.378;2023-08-01T06:03:38;4.05;;;3.55;;
20076;SDS011;12348;42.710;23.378;2023-08-01T06:06:04;4.25;;;2.33;;
20076;SDS011;12348;42.710;23.378;2023-08-01T06:08:31;4.20;;;3.20;;
20076;SDS011;12348;42.710;23.378;2023-08-01T06:10:58;5.38;;;2.97;;
20076;SDS011;12348;42.710;23.378;2023-08-01T06:13:26;4.53;;;2.80;;
20076;SDS011;12348;42.710;23.378;2023-08-01T06:15:53;5.85;;;4.45;;
20076;SDS011;12348;42.710;23.378;2023-08-01T06:18:20;11.80;;;5.22;;
20076;SDS011;12348;42.710;23.378;2023-08-01T06:20:46;4.95;;;3.70;;
20076;SDS011;12348;42.710;23.378;2023-08-01T06:23:13;6.30;;;2.70;;
20076;SDS011;12348;42.710;23.378;2023-08-01T06:25:40;5.97;;;3.10;;
20076;SDS011;12348;42.710;23.378;2023-08-01T06:28:07;5.57;;;2.47;;
20076;SDS011;12348;42.710;23.378;2023-08-01T06:30:35;7.93;;;3.20;;
20076;SDS011;12348;42.710;23.378;2023-08-01T06:33:01;4.22;;;3.13;;
20076;SDS011;12348;42.710;23.378;2023-08-01T06:35:28;4.38;;;2.75;;
20076;SDS011;12348;42.710;23.378;2023-08-01T06:37:55;3.38;;;2.80;;
20076;SDS011;12348;42.710;23.378;2023-08-01T06:40:22;4.47;;;2.90;;
20076;SDS011;12348;42.710;23.378;2023-08-01T06:42:50;3.42;;;2.40;;
20076;SDS011;12348;42.710;23.378;2023-08-01T06:45:17;7.70;;;4.20;;
20076;SDS011;12348;42.710;23.378;2023-08-01T06:47:46;3.38;;;2.75;;
20076;SDS011;12348;42.710;23.378;2023-08-01T06:50:13;4.63;;;2.80;;
20076;SDS011;12348;42.710;23.378;2023-08-01T06:52:40;7.40;;;4.50;;
20076;SDS011;12348;42.710;23.378;2023-08-01T06:55:06;6.60;;;4.38;;
20076;SDS011;12348;42.710;23.378;2023-08-01T06:57:33;4.88;;;3.83;;
20076;SDS011;12348;42.710;23.378;2023-08-01T07:00:00;5.72;;;2.90;;
20076;SDS011;12348;42.710;23.378;2023-08-01T07:02:27;3.33;;;2.75;;
20076;SDS011;12348;42.710;23.378;2023-08-01T07:04:55;3.92;;;2.45;;
20076;SDS011;12348;42.710;23.378;2023-08-01T07:07:22;4.40;;;3.00;;
20076;SDS011;12348;42.710;23.378;2023-08-01T07:09:49;7.97;;;3.20;;
20076;SDS011;12348;42.710;23.378;2023-08-01T07:12:15;6.05;;;3.17;;
20076;SDS011;12348;42.710;23.378;2023-08-01T07:14:42;6.00;;;3.30;;
20076;SDS011;12348;42.710;23.378;2023-08-01T07:17:09;10.52;;;3.85;;
20076;SDS011;12348;42.710;23.378;2023-08-01T07:19:36;4.47;;;2.83;;
20076;SDS011;12348;42.710;23.378;2023-08-01T07:22:04;4.47;;;2.60;;
20076;SDS011;12348;42.710;23.378;2023-08-01T07:24:31;3.58;;;2.95;;
20076;SDS011;12348;42.710;23.378;2023-08-01T07:26:57;4.88;;;2.03;;
20076;SDS011;12348;42.710;23.378;2023-08-01T07:29:24;7.28;;;2.33;;
20076;SDS011;12348;42.710;23.378;2023-08-01T07:31:51;5.60;;;2.40;;
20076;SDS011;12348;42.710;23.378;2023-08-01T07:34:18;3.22;;;1.80;;
20076;SDS011;12348;42.710;23.378;2023-08-01T07:36:45;4.40;;;2.97;;
20076;SDS011;12348;42.710;23.378;2023-08-01T07:39:15;10.68;;;3.33;;
20076;SDS011;12348;42.710;23.378;2023-08-01T07:41:41;5.65;;;2.63;;
20076;SDS011;12348;42.710;23.378;2023-08-01T07:44:08;6.28;;;3.28;;
20076;SDS011;12348;42.710;23.378;2023-08-01T07:46:35;5.47;;;3.03;;
20076;SDS011;12348;42.710;23.378;2023-08-01T07:49:01;7.10;;;2.72;;
20076;SDS011;12348;42.710;23.378;2023-08-01T07:51:28;7.28;;;2.90;;
20076;SDS011;12348;42.710;23.378;2023-08-01T07:53:55;4.30;;;3.05;;
20076;SDS011;12348;42.710;23.378;2023-08-01T07:56:24;4.63;;;2.85;;
20076;SDS011;12348;42.710;23.378;2023-08-01T07:58:51;6.40;;;3.05;;
20076;SDS011;12348;42.710;23.378;2023-08-01T08:01:17;10.63;;;6.30;;
20076;SDS011;12348;42.710;23.378;2023-08-01T08:03:44;6.20;;;4.35;;
20076;SDS011;12348;42.710;23.378;2023-08-01T08:06:11;5.50;;;3.95;;
20076;SDS011;12348;42.710;23.378;2023-08-01T08:08:38;7.07;;;4.07;;
20076;SDS011;12348;42.710;23.378;2023-08-01T08:11:04;6.28;;;4.38;;
20076;SDS011;12348;42.710;23.378;2023-08-01T08:13:32;5.28;;;3.70;;
20076;SDS011;12348;42.710;23.378;2023-08-01T08:15:59;5.75;;;3.03;;
20076;SDS011;12348;42.710;23.378;2023-08-01T08:18:26;9.45;;;4.75;;
20076;SDS011;12348;42.710;23.378;2023-08-01T08:20:53;4.68;;;2.75;;
20076;SDS011;12348;42.710;23.378;2023-08-01T08:23:20;5.45;;;2.95;;
20076;SDS011;12348;42.710;23.378;2023-08-01T08:25:46;5.13;;;3.80;;
20076;SDS011;12348;42.710;23.378;2023-08-01T08:28:14;9.95;;;4.15;;
20076;SDS011;12348;42.710;23.378;2023-08-01T08:30:44;3.65;;;3.00;;
20076;SDS011;12348;42.710;23.378;2023-08-01T08:33:17;10.02;;;3.63;;
20076;SDS011;12348;42.710;23.378;2023-08-01T08:35:46;9.85;;;5.57;;
20076;SDS011;12348;42.710;23.378;2023-08-01T08:38:13;5.38;;;3.90;;
20076;SDS011;12348;42.710;23.378;2023-08-01T08:40:40;6.47;;;3.40;;
20076;SDS011;12348;42.710;23.378;2023-08-01T08:43:09;4.38;;;3.05;;
20076;SDS011;12348;42.710;23.378;2023-08-01T08:45:37;4.22;;;2.85;;
20076;SDS011;12348;42.710;23.378;2023-08-01T08:48:13;7.93;;;3.60;;
20076;SDS011;12348;42.710;23.378;2023-08-01T08:50:44;7.80;;;3.00;;
20076;SDS011;12348;42.710;23.378;2023-08-01T08:53:12;5.20;;;2.83;;
20076;SDS011;12348;42.710;23.378;2023-08-01T08:55:40;5.97;;;2.88;;
20076;SDS011;12348;42.710;23.378;2023-08-01T08:58:07;5.43;;;2.25;;
20076;SDS011;12348;42.710;23.378;2023-08-01T09:00:35;4.47;;;2.60;;
20076;SDS011;12348;42.710;23.378;2023-08-01T09:03:02;3.75;;;2.40;;
20076;SDS011;12348;42.710;23.378;2023-08-01T09:05:32;4.80;;;3.17;;
20076;SDS011;12348;42.710;23.378;2023-08-01T09:08:07;3.95;;;2.05;;
20076;SDS011;12348;42.710;23.378;2023-08-01T09:10:42;6.00;;;2.70;;
20076;SDS011;12348;42.710;23.378;2023-08-01T09:13:11;4.72;;;2.30;;
20076;SDS011;12348;42.710;23.378;2023-08-01T09:15:38;3.67;;;2.25;;
20076;SDS011;12348;42.710;23.378;2023-08-01T09:18:07;3.30;;;2.50;;
20076;SDS011;12348;42.710;23.378;2023-08-01T09:20:41;5.28;;;2.40;;
20076;SDS011;12348;42.710;23.378;2023-08-01T09:23:09;8.05;;;2.40;;
20076;SDS011;12348;42.710;23.378;2023-08-01T09:25:37;3.65;;;2.17;;
20076;SDS011;12348;42.710;23.378;2023-08-01T09:28:14;5.25;;;2.40;;
20076;SDS011;12348;42.710;23.378;2023-08-01T09:30:45;3.03;;;2.10;;
20076;SDS011;12348;42.710;23.378;2023-08-01T09:33:13;3.70;;;2.70;;
20076;SDS011;12348;42.710;23.378;2023-08-01T09:35:41;4.30;;;2.75;;
20076;SDS011;12348;42.710;23.378;2023-08-01T09:38:09;4.63;;;2.53;;
20076;SDS011;12348;42.710;23.378;2023-08-01T09:40:37;4.50;;;2.60;;
20076;SDS011;12348;42.710;23.378;2023-08-01T09:43:03;3.85;;;2.83;;
20076;SDS011;12348;42.710;23.378;2023-08-01T09:45:30;6.28;;;2.97;;
20076;SDS011;12348;42.710;23.378;2023-08-01T09:47:57;7.38;;;2.72;;
20076;SDS011;12348;42.710;23.378;2023-08-01T09:50:24;6.78;;;3.80;;
20076;SDS011;12348;42.710;23.378;2023-08-01T09:52:52;4.38;;;3.83;;
20076;SDS011;12348;42.710;23.378;2023-08-01T09:55:19;5.68;;;3.03;;
20076;SDS011;12348;42.710;23.378;2023-08-01T09:57:51;7.00;;;3.05;;
20076;SDS011;12348;42.710;23.378;2023-08-01T10:00:21;6.72;;;3.95;;
20076;SDS011;12348;42.710;23.378;2023-08-01T10:02:48;5.80;;;3.00;;
20076;SDS011;12348;42.710;23.378;2023-08-01T10:05:18;6.30;;;3.25;;
20076;SDS011;12348;42.710;23.378;2023-08-01T10:07:46;9.27;;;2.92;;
20076;SDS011;12348;42.710;23.378;2023-08-01T10:10:16;4.70;;;2.83;;
20076;SDS011;12348;42.710;23.378;2023-08-01T10:12:45;4.95;;;2.40;;
20076;SDS011;12348;42.710;23.378;2023-08-01T10:15:13;6.95;;;4.22;;
20076;SDS011;12348;42.710;23.378;2023-08-01T10:17:41;6.00;;;2.53;;
20076;SDS011;12348;42.710;23.378;2023-08-01T10:20:08;4.97;;;3.15;;
20076;SDS011;12348;42.710;23.378;2023-08-01T10:22:35;5.78;;;3.50;;
20076;SDS011;12348;42.710;23.378;2023-08-01T10:25:03;4.47;;;3.15;;
20076;SDS011;12348;42.710;23.378;2023-08-01T10:27:33;4.88;;;3.25;;
20076;SDS011;12348;42.710;23.378;2023-08-01T10:30:02;4.65;;;3.33;;
20076;SDS011;12348;42.710;23.378;2023-08-01T10:32:31;3.88;;;2.72;;
20076;SDS011;12348;42.710;23.378;2023-08-01T10:34:59;6.10;;;3.88;;
20076;SDS011;12348;42.710;23.378;2023-08-01T10:37:26;4.70;;;2.70;;
20076;SDS011;12348;42.710;23.378;2023-08-01T10:39:57;5.10;;;2.80;;
20076;SDS011;12348;42.710;23.378;2023-08-01T10:42:24;3.05;;;2.70;;
20076;SDS011;12348;42.710;23.378;2023-08-01T10:44:52;3.63;;;2.95;;
20076;SDS011;12348;42.710;23.378;2023-08-01T10:47:29;8.25;;;2.60;;
20076;SDS011;12348;42.710;23.378;2023-08-01T10:49:56;3.75;;;2.60;;
20076;SDS011;12348;42.710;23.378;2023-08-01T10:52:24;2.97;;;2.63;;
20076;SDS011;12348;42.710;23.378;2023-08-01T10:54:56;5.68;;;3.47;;
20076;SDS011;12348;42.710;23.378;2023-08-01T10:57:24;4.95;;;3.15;;
20076;SDS011;12348;42.710;23.378;2023-08-01T10:59:54;3.92;;;2.42;;
20076;SDS011;12348;42.710;23.378;2023-08-01T11:02:22;4.95;;;2.92;;
20076;SDS011;12348;42.710;23.378;2023-08-01T11:04:57;5.38;;;3.70;;
20076;SDS011;12348;42.710;23.378;2023-08-01T11:07:24;7.32;;;3.53;;
20076;SDS011;12348;42.710;23.378;2023-08-01T11:10:03;4.20;;;3.58;;
20076;SDS011;12348;42.710;23.378;2023-08-01T11:12:34;3.57;;;3.07;;
20076;SDS011;12348;42.710;23.378;2023-08-01T11:15:04;4.77;;;3.17;;
20076;SDS011;12348;42.710;23.378;2023-08-01T11:17:33;5.53;;;3.00;;
20076;SDS011;12348;42.710;23.378;2023-08-01T11:20:00;8.53;;;3.50;;
20076;SDS011;12348;42.710;23.378;2023-08-01T11:22:29;7.37;;;3.50;;
20076;SDS011;12348;42.710;23.378;2023-08-01T11:24:56;6.80;;;3.95;;
20076;SDS011;12348;42.710;23.378;2023-08-01T11:27:23;6.18;;;2.80;;
20076;SDS011;12348;42.710;23.378;2023-08-01T11:29:52;4.07;;;2.73;;
20076;SDS011;12348;42.710;23.378;2023-08-01T11:32:21;6.47;;;3.13;;
20076;SDS011;12348;42.710;23.378;2023-08-01T11:34:48;4.87;;;2.70;;
20076;SDS011;12348;42.710;23.378;2023-08-01T11:37:17;4.07;;;2.80;;
20076;SDS011;12348;42.710;23.378;2023-08-01T11:39:45;8.73;;;2.80;;
20076;SDS011;12348;42.710;23.378;2023-08-01T11:42:14;4.60;;;2.87;;
20076;SDS011;12348;42.710;23.378;2023-08-01T11:44:42;1.23;;;1.13;;
20076;SDS011;12348;42.710;23.378;2023-08-01T11:47:12;7.33;;;3.50;;
20076;SDS011;12348;42.710;23.378;2023-08-01T11:49:45;9.23;;;3.53;;
20076;SDS011;12348;42.710;23.378;2023-08-01T11:52:22;4.47;;;2.87;;
20076;SDS011;12348;42.710;23.378;2023-08-01T11:54:49;5.43;;;2.57;;
20076;SDS011;12348;42.710;23.378;2023-08-01T11:57:16;4.73;;;2.90;;
20076;SDS011;12348;42.710;23.378;2023-08-01T11:59:46;3.87;;;2.80;;
20076;SDS011;12348;42.710;23.378;2023-08-01T12:02:20;6.53;;;3.00;;
20076;SDS011;12348;42.710;23.378;2023-08-01T12:04:49;4.20;;;2.90;;
20076;SDS011;12348;42.710;23.378;2023-08-01T12:07:16;0.40;;;0.40;;
20076;SDS011;12348;42.710;23.378;2023-08-01T12:09:43;0.90;;;0.83;;
20076;SDS011;12348;42.710;23.378;2023-08-01T12:12:10;0.00;;;0.00;;
20076;SDS011;12348;42.710;23.378;2023-08-01T12:14:39;0.93;;;0.70;;
20076;SDS011;12348;42.710;23.378;2023-08-01T12:17:06;0.10;;;0.10;;
20076;SDS011;12348;42.710;23.378;2023-08-01T12:19:32;1.33;;;1.33;;
20076;SDS011;12348;42.710;23.378;2023-08-01T12:22:01;1.63;;;0.90;;
20076;SDS011;12348;42.710;23.378;2023-08-01T12:24:28;0.83;;;0.60;;
20076;SDS011;12348;42.710;23.378;2023-08-01T12:26:54;0.53;;;0.53;;
20076;SDS011;12348;42.710;23.378;2023-08-01T12:29:21;0.27;;;0.27;;
20076;SDS011;12348;42.710;23.378;2023-08-01T12:31:48;0.67;;;0.67;;
20076;SDS011;12348;42.710;23.378;2023-08-01T12:34:15;0.50;;;0.50;;
20076;SDS011;12348;42.710;23.378;2023-08-01T12:36:41;0.67;;;0.60;;
20076;SDS011;12348;42.710;23.378;2023-08-01T12:39:09;0.37;;;0.37;;
20076;SDS011;12348;42.710;23.378;2023-08-01T12:41:37;2.03;;;1.27;;
20076;SDS011;12348;42.710;23.378;2023-08-01T12:44:04;0.57;;;0.53;;
20076;SDS011;12348;42.710;23.378;2023-08-01T12:46:31;0.00;;;0.00;;
20076;SDS011;12348;42.710;23.378;2023-08-01T12:49:00;0.73;;;0.73;;
20076;SDS011;12348;42.710;23.378;2023-08-01T12:51:27;0.13;;;0.13;;
20076;SDS011;12348;42.710;23.378;2023-08-01T12:53:54;0.10;;;0.10;;
20076;SDS011;12348;42.710;23.378;2023-08-01T12:56:22;0.10;;;0.10;;
20076;SDS011;12348;42.710;23.378;2023-08-01T12:58:49;0.17;;;0.17;;
20076;SDS011;12348;42.710;23.378;2023-08-01T13:01:16;3.47;;;0.93;;
20076;SDS011;12348;42.710;23.378;2023-08-01T13:03:42;0.27;;;0.27;;
20076;SDS011;12348;42.710;23.378;2023-08-01T13:06:10;0.00;;;0.00;;
20076;SDS011;12348;42.710;23.378;2023-08-01T13:08:37;1.23;;;0.40;;
20076;SDS011;12348;42.710;23.378;2023-08-01T13:11:09;4.20;;;3.17;;
20076;SDS011;12348;42.710;23.378;2023-08-01T13:13:39;4.93;;;2.67;;
20076;SDS011;12348;42.710;23.378;2023-08-01T13:16:06;5.70;;;3.80;;
20076;SDS011;12348;42.710;23.378;2023-08-01T13:18:33;4.70;;;2.90;;
20076;SDS011;12348;42.710;23.378;2023-08-01T13:21:00;5.57;;;3.00;;
20076;SDS011;12348;42.710;23.378;2023-08-01T13:23:27;7.77;;;3.83;;
20076;SDS011;12348;42.710;23.378;2023-08-01T13:25:54;6.97;;;3.50;;
20076;SDS011;12348;42.710;23.378;2023-08-01T13:28:21;4.07;;;3.10;;
20076;SDS011;12348;42.710;23.378;2023-08-01T13:30:49;4.67;;;3.00;;
20076;SDS011;12348;42.710;23.378;2023-08-01T13:33:15;3.87;;;3.03;;
20076;SDS011;12348;42.710;23.378;2023-08-01T13:35:42;5.20;;;4.20;;
20076;SDS011;12348;42.710;23.378;2023-08-01T13:38:09;4.03;;;3.03;;
20076;SDS011;12348;42.710;23.378;2023-08-01T13:40:35;3.83;;;2.63;;
20076;SDS011;12348;42.710;23.378;2023-08-01T13:43:02;7.30;;;2.87;;
20076;SDS011;12348;42.710;23.378;2023-08-01T13:45:29;7.77;;;3.77;;
20076;SDS011;12348;42.710;23.378;2023-08-01T13:47:58;6.10;;;3.63;;
20076;SDS011;12348;42.710;23.378;2023-08-01T13:50:25;13.00;;;4.00;;
20076;SDS011;12348;42.710;23.378;2023-08-01T13:52:52;6.43;;;3.70;;
20076;SDS011;12348;42.710;23.378;2023-08-01T13:55:19;6.50;;;2.73;;
20076;SDS011;12348;42.710;23.378;2023-08-01T13:57:45;2.57;;;2.23;;
20076;SDS011;12348;42.710;23.378;2023-08-01T14:00:12;5.27;;;4.00;;
20076;SDS011;12348;42.710;23.378;2023-08-01T14:02:39;5.40;;;3.00;;
20076;SDS011;12348;42.710;23.378;2023-08-01T14:05:08;6.23;;;2.73;;
20076;SDS011;12348;42.710;23.378;2023-08-01T14:07:35;4.93;;;3.10;;
20076;SDS011;12348;42.710;23.378;2023-08-01T14:10:02;6.20;;;3.33;;
20076;SDS011;12348;42.710;23.378;2023-08-01T14:12:29;10.10;;;3.63;;
20076;SDS011;12348;42.710;23.378;2023-08-01T14:14:56;3.10;;;2.27;;
20076;SDS011;12348;42.710;23.378;2023-08-01T14:17:23;4.83;;;2.37;;
20076;SDS011;12348;42.710;23.378;2023-08-01T14:19:49;4.67;;;3.07;;
20076;SDS011;12348;42.710;23.378;2023-08-01T14:22:17;7.00;;;3.47;;
20076;SDS011;12348;42.710;23.378;2023-08-01T14:24:44;3.53;;;2.50;;
20076;SDS011;12348;42.710;23.378;2023-08-01T14:27:11;3.33;;;2.40;;
20076;SDS011;12348;42.710;23.378;2023-08-01T14:29:37;2.80;;;2.53;;
20076;SDS011;12348;42.710;23.378;2023-08-01T14:32:06;3.10;;;2.23;;
20076;SDS011;12348;42.710;23.378;2023-08-01T14:34:33;9.70;;;2.87;;